CheckWX is a tool to help pilots better visualize weather data.  It is not intended as a substitute for an official pre-flight weather briefing.

07:04:05 UTC

KBVI METAR
Beaver County Airport
Beaver Falls, Pennsylvania, USA
Current

9 mins ago

KBVI 210655Z AUTO 11003KT 10SM SCT055 19/15 A3021 RMK AO2 T01860147
Observed
Sep-21 @ 06:55 UTC
Wind
  • 110° at 3 KTS
Visibility
10 SM
Flight Rules
VFR
Cloud Levels
  • Scattered at 5,500' AGL
Temperature
19°C / 66°F
Dewpoint
15°C / 59°F
Humidity
78%
Altimeter
30.21" Hg
Pressure
1023.02 hPa
Previous

28 mins ago

KBVI 210636Z AUTO 13003KT 10SM SCT055 SCT080 19/15 A3022 RMK AO2 T01910146
Observed
Sep-21 @ 06:36 UTC
Wind
  • 130° at 3 KTS
Visibility
10 SM
Flight Rules
VFR
Cloud Levels
  • Scattered at 5,500' AGL
  • Scattered at 8,000' AGL
Temperature
19°C / 66°F
Dewpoint
15°C / 59°F
Humidity
78%
Altimeter
30.22" Hg
Pressure
1023.42 hPa
Previous

49 mins ago

KBVI 210615Z AUTO 11003KT 10SM SCT055 19/15 A3022 RMK AO2 T01920146
Observed
Sep-21 @ 06:15 UTC
Wind
  • 110° at 3 KTS
Visibility
10 SM
Flight Rules
VFR
Cloud Levels
  • Scattered at 5,500' AGL
Temperature
19°C / 66°F
Dewpoint
15°C / 59°F
Humidity
78%
Altimeter
30.22" Hg
Pressure
1023.42 hPa